sensor_id;sensor_type;location;lat;lon;timestamp;pressure;altitude;pressure_sealevel;temperature;humidity
4617;BME280;2321;42.704;23.384;2023-03-13T00:00:57;95708.13;;;2.15;76.58
4617;BME280;2321;42.704;23.384;2023-03-13T00:03:24;95704.56;;;2.16;76.55
4617;BME280;2321;42.704;23.384;2023-03-13T00:05:55;95705.66;;;2.14;77.53
4617;BME280;2321;42.704;23.384;2023-03-13T00:08:22;95715.31;;;2.13;77.11
4617;BME280;2321;42.704;23.384;2023-03-13T00:10:49;95715.91;;;2.17;76.85
4617;BME280;2321;42.704;23.384;2023-03-13T00:13:16;95708.72;;;2.19;76.05
4617;BME280;2321;42.704;23.384;2023-03-13T00:15:43;95713.69;;;2.22;75.21
4617;BME280;2321;42.704;23.384;2023-03-13T00:18:11;95720.63;;;2.23;75.41
4617;BME280;2321;42.704;23.384;2023-03-13T00:20:38;95711.50;;;2.27;76.32
4617;BME280;2321;42.704;23.384;2023-03-13T00:23:05;95717.00;;;2.14;75.68
4617;BME280;2321;42.704;23.384;2023-03-13T00:25:32;95723.59;;;2.09;76.75
4617;BME280;2321;42.704;23.384;2023-03-13T00:27:59;95727.44;;;2.04;78.33
4617;BME280;2321;42.704;23.384;2023-03-13T00:30:26;95727.56;;;2.03;78.40
4617;BME280;2321;42.704;23.384;2023-03-13T00:32:53;95725.47;;;1.96;78.46
4617;BME280;2321;42.704;23.384;2023-03-13T00:35:21;95731.50;;;1.87;79.42
4617;BME280;2321;42.704;23.384;2023-03-13T00:37:48;95720.97;;;1.87;80.25
4617;BME280;2321;42.704;23.384;2023-03-13T00:40:15;95720.03;;;1.88;80.44
4617;BME280;2321;42.704;23.384;2023-03-13T00:42:44;95720.72;;;1.90;79.96
4617;BME280;2321;42.704;23.384;2023-03-13T00:45:11;95729.44;;;1.91;80.91
4617;BME280;2321;42.704;23.384;2023-03-13T00:47:38;95723.59;;;1.87;80.10
4617;BME280;2321;42.704;23.384;2023-03-13T00:50:06;95725.81;;;1.82;81.97
4617;BME280;2321;42.704;23.384;2023-03-13T00:52:34;95716.28;;;1.81;82.11
4617;BME280;2321;42.704;23.384;2023-03-13T00:55:01;95714.03;;;1.76;82.05
4617;BME280;2321;42.704;23.384;2023-03-13T00:57:28;95719.84;;;1.80;83.81
4617;BME280;2321;42.704;23.384;2023-03-13T00:59:55;95715.69;;;1.77;82.94
4617;BME280;2321;42.704;23.384;2023-03-13T01:02:22;95717.84;;;1.72;83.48
4617;BME280;2321;42.704;23.384;2023-03-13T01:04:49;95717.75;;;1.73;83.98
4617;BME280;2321;42.704;23.384;2023-03-13T01:07:18;95719.69;;;1.71;83.42
4617;BME280;2321;42.704;23.384;2023-03-13T01:09:46;95725.63;;;1.73;83.45
4617;BME280;2321;42.704;23.384;2023-03-13T01:12:13;95726.72;;;1.71;83.99
4617;BME280;2321;42.704;23.384;2023-03-13T01:14:40;95722.47;;;1.58;86.33
4617;BME280;2321;42.704;23.384;2023-03-13T01:17:07;95722.81;;;1.65;88.09
4617;BME280;2321;42.704;23.384;2023-03-13T01:19:34;95724.97;;;1.60;91.21
4617;BME280;2321;42.704;23.384;2023-03-13T01:22:01;95728.19;;;1.63;91.35
4617;BME280;2321;42.704;23.384;2023-03-13T01:24:28;95724.59;;;1.65;91.39
4617;BME280;2321;42.704;23.384;2023-03-13T01:26:56;95717.81;;;1.62;91.89
4617;BME280;2321;42.704;23.384;2023-03-13T01:29:23;95724.97;;;1.60;91.08
4617;BME280;2321;42.704;23.384;2023-03-13T01:31:50;95731.81;;;1.51;90.82
4617;BME280;2321;42.704;23.384;2023-03-13T01:34:17;95732.66;;;1.51;91.10
4617;BME280;2321;42.704;23.384;2023-03-13T01:36:44;95735.34;;;1.40;92.01
4617;BME280;2321;42.704;23.384;2023-03-13T01:39:15;95730.44;;;1.35;93.31
4617;BME280;2321;42.704;23.384;2023-03-13T01:41:42;95734.06;;;1.34;92.91
4617;BME280;2321;42.704;23.384;2023-03-13T01:44:20;95746.25;;;1.24;93.10
4617;BME280;2321;42.704;23.384;2023-03-13T01:46:48;95735.38;;;1.28;93.40
4617;BME280;2321;42.704;23.384;2023-03-13T01:49:17;95745.03;;;1.28;91.79
4617;BME280;2321;42.704;23.384;2023-03-13T01:51:47;95746.28;;;1.12;93.41
4617;BME280;2321;42.704;23.384;2023-03-13T01:54:18;95744.75;;;1.10;94.42
4617;BME280;2321;42.704;23.384;2023-03-13T01:56:49;95744.41;;;1.03;94.80
4617;BME280;2321;42.704;23.384;2023-03-13T01:59:20;95742.41;;;0.95;95.82
4617;BME280;2321;42.704;23.384;2023-03-13T02:01:52;95743.13;;;0.97;96.12
4617;BME280;2321;42.704;23.384;2023-03-13T02:04:21;95750.03;;;0.98;96.94
4617;BME280;2321;42.704;23.384;2023-03-13T02:06:52;95742.16;;;0.98;98.41
4617;BME280;2321;42.704;23.384;2023-03-13T02:09:23;95747.41;;;0.98;98.82
4617;BME280;2321;42.704;23.384;2023-03-13T02:11:55;95746.69;;;0.96;98.82
4617;BME280;2321;42.704;23.384;2023-03-13T02:14:27;95744.56;;;0.90;100.00
4617;BME280;2321;42.704;23.384;2023-03-13T02:16:55;95751.81;;;0.97;100.00
4617;BME280;2321;42.704;23.384;2023-03-13T02:19:27;95758.84;;;0.97;100.00
4617;BME280;2321;42.704;23.384;2023-03-13T02:22:01;95760.28;;;0.90;100.00
4617;BME280;2321;42.704;23.384;2023-03-13T02:24:34;95760.28;;;0.90;100.00
4617;BME280;2321;42.704;23.384;2023-03-13T02:27:05;95767.44;;;0.88;100.00
4617;BME280;2321;42.704;23.384;2023-03-13T02:29:32;95762.22;;;0.76;100.00
4617;BME280;2321;42.704;23.384;2023-03-13T02:31:59;95768.63;;;0.83;100.00
4617;BME280;2321;42.704;23.384;2023-03-13T02:34:31;95779.38;;;0.80;100.00
4617;BME280;2321;42.704;23.384;2023-03-13T02:36:59;95779.59;;;0.77;100.00
4617;BME280;2321;42.704;23.384;2023-03-13T02:39:28;95787.72;;;0.74;100.00
4617;BME280;2321;42.704;23.384;2023-03-13T02:41:57;95789.75;;;0.70;100.00
4617;BME280;2321;42.704;23.384;2023-03-13T02:44:26;95802.25;;;0.78;99.25
4617;BME280;2321;42.704;23.384;2023-03-13T02:46:53;95799.28;;;0.71;100.00
4617;BME280;2321;42.704;23.384;2023-03-13T02:49:22;95811.44;;;0.72;100.00
4617;BME280;2321;42.704;23.384;2023-03-13T02:51:49;95814.75;;;0.74;100.00
4617;BME280;2321;42.704;23.384;2023-03-13T02:54:18;95815.25;;;0.80;100.00
4617;BME280;2321;42.704;23.384;2023-03-13T02:56:49;95810.00;;;0.80;100.00
4617;BME280;2321;42.704;23.384;2023-03-13T02:59:17;95813.00;;;0.63;100.00
4617;BME280;2321;42.704;23.384;2023-03-13T03:01:46;95808.22;;;0.57;100.00
4617;BME280;2321;42.704;23.384;2023-03-13T03:04:18;95810.97;;;0.67;100.00
4617;BME280;2321;42.704;23.384;2023-03-13T03:06:45;95805.25;;;0.73;100.00
4617;BME280;2321;42.704;23.384;2023-03-13T03:09:12;95807.88;;;0.73;100.00
4617;BME280;2321;42.704;23.384;2023-03-13T03:11:39;95812.03;;;0.76;100.00
4617;BME280;2321;42.704;23.384;2023-03-13T03:14:07;95811.19;;;0.75;100.00
4617;BME280;2321;42.704;23.384;2023-03-13T03:16:34;95816.94;;;0.58;100.00
4617;BME280;2321;42.704;23.384;2023-03-13T03:19:03;95833.84;;;0.53;100.00
4617;BME280;2321;42.704;23.384;2023-03-13T03:21:30;95833.84;;;0.53;100.00
4617;BME280;2321;42.704;23.384;2023-03-13T03:23:57;95830.59;;;0.50;100.00
4617;BME280;2321;42.704;23.384;2023-03-13T03:26:24;95845.50;;;0.49;100.00
4617;BME280;2321;42.704;23.384;2023-03-13T03:28:51;95844.41;;;0.40;100.00
4617;BME280;2321;42.704;23.384;2023-03-13T03:31:18;95854.78;;;0.42;100.00
4617;BME280;2321;42.704;23.384;2023-03-13T03:33:45;95857.31;;;0.55;100.00
4617;BME280;2321;42.704;23.384;2023-03-13T03:36:16;95856.94;;;0.48;100.00
4617;BME280;2321;42.704;23.384;2023-03-13T03:38:44;95851.94;;;0.45;100.00
4617;BME280;2321;42.704;23.384;2023-03-13T03:41:13;95852.50;;;0.37;100.00
4617;BME280;2321;42.704;23.384;2023-03-13T03:43:40;95854.91;;;0.40;100.00
4617;BME280;2321;42.704;23.384;2023-03-13T03:46:08;95865.50;;;0.27;100.00
4617;BME280;2321;42.704;23.384;2023-03-13T03:48:35;95882.00;;;0.28;100.00
4617;BME280;2321;42.704;23.384;2023-03-13T03:51:03;95885.53;;;0.40;100.00
4617;BME280;2321;42.704;23.384;2023-03-13T03:53:32;95893.94;;;0.32;100.00
4617;BME280;2321;42.704;23.384;2023-03-13T03:56:00;95880.97;;;0.30;100.00
4617;BME280;2321;42.704;23.384;2023-03-13T03:58:27;95893.94;;;0.32;100.00
4617;BME280;2321;42.704;23.384;2023-03-13T04:00:56;95885.75;;;0.37;100.00
4617;BME280;2321;42.704;23.384;2023-03-13T04:03:23;95895.00;;;0.29;100.00
4617;BME280;2321;42.704;23.384;2023-03-13T04:05:50;95897.25;;;0.23;100.00
4617;BME280;2321;42.704;23.384;2023-03-13T04:08:18;95904.19;;;0.35;100.00
4617;BME280;2321;42.704;23.384;2023-03-13T04:10:46;95902.06;;;0.40;100.00
4617;BME280;2321;42.704;23.384;2023-03-13T04:13:13;95906.34;;;0.30;100.00
4617;BME280;2321;42.704;23.384;2023-03-13T04:15:40;95919.00;;;0.48;100.00
4617;BME280;2321;42.704;23.384;2023-03-13T04:18:07;95908.50;;;0.48;100.00
4617;BME280;2321;42.704;23.384;2023-03-13T04:20:35;95914.56;;;0.37;100.00
4617;BME280;2321;42.704;23.384;2023-03-13T04:23:02;95923.94;;;0.28;100.00
4617;BME280;2321;42.704;23.384;2023-03-13T04:25:29;95917.50;;;0.20;100.00
4617;BME280;2321;42.704;23.384;2023-03-13T04:27:57;95920.50;;;0.27;100.00
4617;BME280;2321;42.704;23.384;2023-03-13T04:30:24;95925.22;;;0.22;100.00
4617;BME280;2321;42.704;23.384;2023-03-13T04:32:51;95935.13;;;0.18;100.00
4617;BME280;2321;42.704;23.384;2023-03-13T04:35:18;95929.50;;;0.12;100.00
4617;BME280;2321;42.704;23.384;2023-03-13T04:37:46;95942.47;;;0.13;100.00
4617;BME280;2321;42.704;23.384;2023-03-13T04:40:13;95952.94;;;0.13;100.00
4617;BME280;2321;42.704;23.384;2023-03-13T04:42:40;95958.22;;;0.25;100.00
4617;BME280;2321;42.704;23.384;2023-03-13T04:45:10;95957.97;;;0.28;100.00
4617;BME280;2321;42.704;23.384;2023-03-13T04:47:37;95964.44;;;0.35;100.00
4617;BME280;2321;42.704;23.384;2023-03-13T04:50:05;95963.34;;;0.26;100.00
4617;BME280;2321;42.704;23.384;2023-03-13T04:52:32;95959.28;;;0.22;100.00
4617;BME280;2321;42.704;23.384;2023-03-13T04:54:58;95965.34;;;0.23;100.00
4617;BME280;2321;42.704;23.384;2023-03-13T04:57:25;95966.28;;;0.21;100.00
4617;BME280;2321;42.704;23.384;2023-03-13T04:59:53;95966.06;;;0.25;100.00
4617;BME280;2321;42.704;23.384;2023-03-13T05:02:23;95967.25;;;0.20;100.00
4617;BME280;2321;42.704;23.384;2023-03-13T05:04:52;95968.53;;;0.15;100.00
4617;BME280;2321;42.704;23.384;2023-03-13T05:07:19;95975.34;;;0.17;100.00
4617;BME280;2321;42.704;23.384;2023-03-13T05:09:46;95976.53;;;0.25;100.00
4617;BME280;2321;42.704;23.384;2023-03-13T05:12:13;95962.56;;;0.13;100.00
4617;BME280;2321;42.704;23.384;2023-03-13T05:14:40;95965.47;;;0.21;100.00
4617;BME280;2321;42.704;23.384;2023-03-13T05:17:07;95979.50;;;0.20;100.00
4617;BME280;2321;42.704;23.384;2023-03-13T05:19:36;95988.38;;;0.30;100.00
4617;BME280;2321;42.704;23.384;2023-03-13T05:22:03;95984.47;;;0.36;100.00
4617;BME280;2321;42.704;23.384;2023-03-13T05:24:30;95998.84;;;0.30;100.00
4617;BME280;2321;42.704;23.384;2023-03-13T05:26:57;96003.53;;;0.38;100.00
4617;BME280;2321;42.704;23.384;2023-03-13T05:29:24;96003.91;;;0.45;100.00
4617;BME280;2321;42.704;23.384;2023-03-13T05:31:51;96004.06;;;0.55;100.00
4617;BME280;2321;42.704;23.384;2023-03-13T05:34:18;95999.31;;;0.60;100.00
4617;BME280;2321;42.704;23.384;2023-03-13T05:36:46;96004.56;;;0.72;100.00
4617;BME280;2321;42.704;23.384;2023-03-13T05:39:13;96009.09;;;0.70;100.00
4617;BME280;2321;42.704;23.384;2023-03-13T05:41:40;96011.50;;;0.73;100.00
4617;BME280;2321;42.704;23.384;2023-03-13T05:44:07;96003.63;;;0.73;100.00
4617;BME280;2321;42.704;23.384;2023-03-13T05:46:34;96010.19;;;0.79;100.00
4617;BME280;2321;42.704;23.384;2023-03-13T05:49:01;96010.22;;;0.90;100.00
4617;BME280;2321;42.704;23.384;2023-03-13T05:51:28;96014.13;;;0.84;100.00
4617;BME280;2321;42.704;23.384;2023-03-13T05:53:57;96017.69;;;0.83;100.00
4617;BME280;2321;42.704;23.384;2023-03-13T05:56:23;96022.63;;;1.00;100.00
4617;BME280;2321;42.704;23.384;2023-03-13T05:58:50;96016.56;;;1.11;100.00
4617;BME280;2321;42.704;23.384;2023-03-13T06:01:17;96022.91;;;1.19;100.00
4617;BME280;2321;42.704;23.384;2023-03-13T06:03:44;96024.31;;;1.24;100.00
4617;BME280;2321;42.704;23.384;2023-03-13T06:06:11;96028.72;;;1.23;100.00
4617;BME280;2321;42.704;23.384;2023-03-13T06:08:38;96025.63;;;1.18;100.00
4617;BME280;2321;42.704;23.384;2023-03-13T06:11:06;96029.19;;;1.05;100.00
4617;BME280;2321;42.704;23.384;2023-03-13T06:13:33;96031.50;;;1.22;100.00
4617;BME280;2321;42.704;23.384;2023-03-13T06:16:00;96032.19;;;1.24;100.00
4617;BME280;2321;42.704;23.384;2023-03-13T06:18:27;96034.09;;;1.22;100.00
4617;BME280;2321;42.704;23.384;2023-03-13T06:20:59;96029.94;;;1.30;100.00
4617;BME280;2321;42.704;23.384;2023-03-13T06:23:27;96032.34;;;1.34;100.00
4617;BME280;2321;42.704;23.384;2023-03-13T06:25:54;96030.31;;;1.37;100.00
4617;BME280;2321;42.704;23.384;2023-03-13T06:28:22;96032.81;;;1.39;100.00
4617;BME280;2321;42.704;23.384;2023-03-13T06:30:49;96032.31;;;1.45;100.00
4617;BME280;2321;42.704;23.384;2023-03-13T06:33:16;96033.53;;;1.52;100.00
4617;BME280;2321;42.704;23.384;2023-03-13T06:35:43;96024.81;;;1.63;100.00
4617;BME280;2321;42.704;23.384;2023-03-13T06:38:10;96016.09;;;1.74;100.00
4617;BME280;2321;42.704;23.384;2023-03-13T06:40:37;96010.59;;;1.89;100.00
4617;BME280;2321;42.704;23.384;2023-03-13T06:43:04;96009.59;;;2.02;100.00
4617;BME280;2321;42.704;23.384;2023-03-13T06:45:34;96008.22;;;2.19;100.00
4617;BME280;2321;42.704;23.384;2023-03-13T06:48:01;96016.81;;;2.33;100.00
4617;BME280;2321;42.704;23.384;2023-03-13T06:50:28;96018.34;;;2.35;100.00
4617;BME280;2321;42.704;23.384;2023-03-13T06:52:55;96025.00;;;2.39;99.00
4617;BME280;2321;42.704;23.384;2023-03-13T06:55:23;96031.44;;;2.47;96.65
4617;BME280;2321;42.704;23.384;2023-03-13T06:57:50;96021.31;;;2.42;94.55
4617;BME280;2321;42.704;23.384;2023-03-13T07:00:18;96017.59;;;2.45;96.09
4617;BME280;2321;42.704;23.384;2023-03-13T07:02:47;96012.13;;;2.58;96.59
4617;BME280;2321;42.704;23.384;2023-03-13T07:05:14;96018.16;;;2.70;94.40
4617;BME280;2321;42.704;23.384;2023-03-13T07:07:42;96015.19;;;2.75;90.78
4617;BME280;2321;42.704;23.384;2023-03-13T07:10:10;96021.78;;;2.69;89.62
4617;BME280;2321;42.704;23.384;2023-03-13T07:12:37;96015.44;;;2.71;92.00
4617;BME280;2321;42.704;23.384;2023-03-13T07:15:05;96021.19;;;2.65;91.55
4617;BME280;2321;42.704;23.384;2023-03-13T07:17:32;96020.00;;;2.69;91.26
4617;BME280;2321;42.704;23.384;2023-03-13T07:20:00;96012.66;;;2.73;90.32
4617;BME280;2321;42.704;23.384;2023-03-13T07:22:28;96010.50;;;2.78;90.38
4617;BME280;2321;42.704;23.384;2023-03-13T07:24:55;96007.97;;;2.77;89.54
4617;BME280;2321;42.704;23.384;2023-03-13T07:27:22;96004.53;;;2.76;90.43
4617;BME280;2321;42.704;23.384;2023-03-13T07:29:48;96011.97;;;2.92;90.41
4617;BME280;2321;42.704;23.384;2023-03-13T07:32:15;96018.75;;;2.95;88.39
4617;BME280;2321;42.704;23.384;2023-03-13T07:34:43;96017.41;;;3.01;86.64
4617;BME280;2321;42.704;23.384;2023-03-13T07:37:11;96011.00;;;3.15;86.19
4617;BME280;2321;42.704;23.384;2023-03-13T07:39:38;96010.38;;;3.33;84.17
4617;BME280;2321;42.704;23.384;2023-03-13T07:42:05;96011.28;;;3.43;82.95
4617;BME280;2321;42.704;23.384;2023-03-13T07:44:32;96011.13;;;3.45;79.49
4617;BME280;2321;42.704;23.384;2023-03-13T07:47:00;96022.41;;;3.57;78.99
4617;BME280;2321;42.704;23.384;2023-03-13T07:49:27;96018.94;;;3.56;79.46
4617;BME280;2321;42.704;23.384;2023-03-13T07:51:53;96014.25;;;3.60;81.18
4617;BME280;2321;42.704;23.384;2023-03-13T07:54:23;96008.03;;;3.61;78.32
4617;BME280;2321;42.704;23.384;2023-03-13T07:56:50;96010.13;;;3.67;78.53
4617;BME280;2321;42.704;23.384;2023-03-13T07:59:17;96000.84;;;3.73;78.84
4617;BME280;2321;42.704;23.384;2023-03-13T08:01:44;96002.00;;;3.90;78.63
4617;BME280;2321;42.704;23.384;2023-03-13T08:04:11;95997.16;;;4.06;77.57
4617;BME280;2321;42.704;23.384;2023-03-13T08:06:39;95995.78;;;4.11;76.48
4617;BME280;2321;42.704;23.384;2023-03-13T08:09:06;95996.75;;;4.20;75.96
4617;BME280;2321;42.704;23.384;2023-03-13T08:11:37;95994.69;;;4.24;71.38
4617;BME280;2321;42.704;23.384;2023-03-13T08:14:04;95994.69;;;4.24;68.50
4617;BME280;2321;42.704;23.384;2023-03-13T08:16:33;95993.47;;;4.38;72.02
4617;BME280;2321;42.704;23.384;2023-03-13T08:19:01;95992.91;;;4.54;71.29
4617;BME280;2321;42.704;23.384;2023-03-13T08:21:31;95993.47;;;4.68;69.80
4617;BME280;2321;42.704;23.384;2023-03-13T08:24:00;95986.06;;;4.82;72.76
4617;BME280;2321;42.704;23.384;2023-03-13T08:26:29;95990.66;;;4.89;67.32
4617;BME280;2321;42.704;23.384;2023-03-13T08:28:59;95997.06;;;4.87;65.18
4617;BME280;2321;42.704;23.384;2023-03-13T08:31:27;95994.97;;;4.90;65.47
4617;BME280;2321;42.704;23.384;2023-03-13T08:33:54;95997.88;;;4.87;63.96
4617;BME280;2321;42.704;23.384;2023-03-13T08:36:23;96003.97;;;4.98;62.58
4617;BME280;2321;42.704;23.384;2023-03-13T08:38:51;96008.13;;;5.00;62.55
4617;BME280;2321;42.704;23.384;2023-03-13T08:41:21;96003.94;;;5.08;63.70
4617;BME280;2321;42.704;23.384;2023-03-13T08:43:48;96004.63;;;5.10;63.02
4617;BME280;2321;42.704;23.384;2023-03-13T08:46:16;95994.63;;;5.14;62.83
4617;BME280;2321;42.704;23.384;2023-03-13T08:48:43;95996.69;;;5.30;62.93
4617;BME280;2321;42.704;23.384;2023-03-13T08:51:12;95990.25;;;5.42;61.90
4617;BME280;2321;42.704;23.384;2023-03-13T08:53:41;95992.69;;;5.54;61.76
4617;BME280;2321;42.704;23.384;2023-03-13T08:56:08;95988.19;;;5.64;60.04
4617;BME280;2321;42.704;23.384;2023-03-13T08:58:36;95989.31;;;5.62;60.48
4617;BME280;2321;42.704;23.384;2023-03-13T09:01:04;95987.88;;;5.67;62.39
4617;BME280;2321;42.704;23.384;2023-03-13T09:03:33;95987.63;;;5.89;61.64
4617;BME280;2321;42.704;23.384;2023-03-13T09:06:01;95987.28;;;6.02;59.05
4617;BME280;2321;42.704;23.384;2023-03-13T09:08:29;95980.47;;;6.09;59.23
4617;BME280;2321;42.704;23.384;2023-03-13T09:10:56;95980.19;;;6.13;57.06
4617;BME280;2321;42.704;23.384;2023-03-13T09:13:24;95988.47;;;6.18;58.23
4617;BME280;2321;42.704;23.384;2023-03-13T09:15:54;95981.94;;;6.22;55.48
4617;BME280;2321;42.704;23.384;2023-03-13T09:18:21;95980.56;;;6.18;55.59
4617;BME280;2321;42.704;23.384;2023-03-13T09:20:50;95977.78;;;6.38;56.41
4617;BME280;2321;42.704;23.384;2023-03-13T09:23:18;95974.13;;;6.39;55.65
4617;BME280;2321;42.704;23.384;2023-03-13T09:25:45;95972.09;;;6.32;56.52
4617;BME280;2321;42.704;23.384;2023-03-13T09:28:12;95974.81;;;6.41;57.05
4617;BME280;2321;42.704;23.384;2023-03-13T09:30:39;95977.69;;;6.48;56.39
4617;BME280;2321;42.704;23.384;2023-03-13T09:33:06;95950.69;;;6.44;56.67
4617;BME280;2321;42.704;23.384;2023-03-13T09:35:33;95976.59;;;6.77;55.15
4617;BME280;2321;42.704;23.384;2023-03-13T09:38:01;95984.38;;;6.79;55.30
4617;BME280;2321;42.704;23.384;2023-03-13T09:40:28;95980.16;;;6.86;56.82
4617;BME280;2321;42.704;23.384;2023-03-13T09:42:57;95978.59;;;7.02;55.60
4617;BME280;2321;42.704;23.384;2023-03-13T09:45:29;95965.50;;;7.00;55.17
4617;BME280;2321;42.704;23.384;2023-03-13T09:48:01;95973.00;;;7.05;54.67
4617;BME280;2321;42.704;23.384;2023-03-13T09:50:33;95971.09;;;7.24;54.73
4617;BME280;2321;42.704;23.384;2023-03-13T09:53:05;95972.34;;;7.38;54.14
4617;BME280;2321;42.704;23.384;2023-03-13T09:55:40;95967.88;;;7.38;53.80
4617;BME280;2321;42.704;23.384;2023-03-13T09:58:12;95963.13;;;7.42;54.12
4617;BME280;2321;42.704;23.384;2023-03-13T10:00:43;95957.84;;;7.50;52.97
4617;BME280;2321;42.704;23.384;2023-03-13T10:03:14;95957.41;;;7.63;52.64
4617;BME280;2321;42.704;23.384;2023-03-13T10:05:46;95963.91;;;7.78;53.12
4617;BME280;2321;42.704;23.384;2023-03-13T10:08:17;95953.31;;;7.86;53.51
4617;BME280;2321;42.704;23.384;2023-03-13T10:10:48;95946.91;;;7.97;52.80
4617;BME280;2321;42.704;23.384;2023-03-13T10:13:21;95916.41;;;7.93;52.18
4617;BME280;2321;42.704;23.384;2023-03-13T10:15:51;95949.91;;;8.19;51.42
4617;BME280;2321;42.704;23.384;2023-03-13T10:18:23;95948.94;;;8.20;51.99
4617;BME280;2321;42.704;23.384;2023-03-13T10:20:51;95930.53;;;8.27;50.48
4617;BME280;2321;42.704;23.384;2023-03-13T10:23:26;95928.06;;;8.34;50.66
4617;BME280;2321;42.704;23.384;2023-03-13T10:25:58;95917.78;;;8.39;51.75
4617;BME280;2321;42.704;23.384;2023-03-13T10:28:25;95907.97;;;8.56;51.08
4617;BME280;2321;42.704;23.384;2023-03-13T10:30:58;95909.16;;;8.79;51.28
4617;BME280;2321;42.704;23.384;2023-03-13T10:33:28;95903.13;;;9.02;50.60
4617;BME280;2321;42.704;23.384;2023-03-13T10:36:05;95909.25;;;9.19;49.54
4617;BME280;2321;42.704;23.384;2023-03-13T10:38:44;95899.97;;;9.07;50.14
4617;BME280;2321;42.704;23.384;2023-03-13T10:41:20;95893.84;;;9.06;49.00
4617;BME280;2321;42.704;23.384;2023-03-13T10:43:50;95890.84;;;9.09;49.76
4617;BME280;2321;42.704;23.384;2023-03-13T10:46:24;95882.81;;;9.26;51.41
4617;BME280;2321;42.704;23.384;2023-03-13T10:48:53;95884.06;;;9.47;49.24
4617;BME280;2321;42.704;23.384;2023-03-13T10:51:22;95881.50;;;9.62;50.60
4617;BME280;2321;42.704;23.384;2023-03-13T10:53:50;95875.91;;;9.80;50.42
4617;BME280;2321;42.704;23.384;2023-03-13T10:56:29;95870.53;;;9.89;48.61
4617;BME280;2321;42.704;23.384;2023-03-13T10:58:56;95864.59;;;9.87;47.84
4617;BME280;2321;42.704;23.384;2023-03-13T11:01:24;95870.91;;;9.86;48.49
4617;BME280;2321;42.704;23.384;2023-03-13T11:03:54;95874.38;;;9.86;49.00
4617;BME280;2321;42.704;23.384;2023-03-13T11:06:28;95862.56;;;9.89;47.62
4617;BME280;2321;42.704;23.384;2023-03-13T11:09:03;95848.31;;;9.81;47.35
4617;BME280;2321;42.704;23.384;2023-03-13T11:11:42;95842.28;;;9.88;49.08
4617;BME280;2321;42.704;23.384;2023-03-13T11:14:13;95847.84;;;10.01;47.47
4617;BME280;2321;42.704;23.384;2023-03-13T11:16:46;95844.50;;;10.08;47.11
4617;BME280;2321;42.704;23.384;2023-03-13T11:22:14;95845.34;;;10.00;48.81
4617;BME280;2321;42.704;23.384;2023-03-13T11:24:50;95830.81;;;10.11;47.00
4617;BME280;2321;42.704;23.384;2023-03-13T11:27:28;95838.47;;;10.14;46.27
4617;BME280;2321;42.704;23.384;2023-03-13T11:30:07;95832.06;;;10.23;46.41
4617;BME280;2321;42.704;23.384;2023-03-13T11:32:41;95827.97;;;10.36;46.61
4617;BME280;2321;42.704;23.384;2023-03-13T11:35:20;95817.69;;;10.33;46.17
4617;BME280;2321;42.704;23.384;2023-03-13T11:37:50;95818.97;;;10.37;46.87
4617;BME280;2321;42.704;23.384;2023-03-13T11:40:27;95814.38;;;10.46;46.39
4617;BME280;2321;42.704;23.384;2023-03-13T11:43:09;95808.06;;;10.47;45.19
4617;BME280;2321;42.704;23.384;2023-03-13T11:45:52;95800.91;;;10.48;45.43
4617;BME280;2321;42.704;23.384;2023-03-13T11:48:43;95796.88;;;10.52;45.77
4617;BME280;2321;42.704;23.384;2023-03-13T11:51:17;95793.56;;;10.50;46.10
4617;BME280;2321;42.704;23.384;2023-03-13T11:54:15;95781.38;;;10.55;46.51
4617;BME280;2321;42.704;23.384;2023-03-13T11:56:52;95780.38;;;10.56;46.43
4617;BME280;2321;42.704;23.384;2023-03-13T11:59:30;95777.88;;;10.55;45.83
4617;BME280;2321;42.704;23.384;2023-03-13T12:02:04;95772.28;;;10.65;45.30
4617;BME280;2321;42.704;23.384;2023-03-13T12:04:35;95776.41;;;10.83;46.36
4617;BME280;2321;42.704;23.384;2023-03-13T12:07:09;95761.72;;;11.02;45.30
4617;BME280;2321;42.704;23.384;2023-03-13T12:09:48;95759.75;;;11.26;45.45
4617;BME280;2321;42.704;23.384;2023-03-13T12:12:22;95757.31;;;11.47;44.31
4617;BME280;2321;42.704;23.384;2023-03-13T12:14:52;95749.09;;;11.48;43.33
4617;BME280;2321;42.704;23.384;2023-03-13T12:17:30;95747.06;;;11.50;44.05
4617;BME280;2321;42.704;23.384;2023-03-13T12:20:02;95745.75;;;11.61;42.47
4617;BME280;2321;42.704;23.384;2023-03-13T12:22:35;95747.47;;;11.69;41.54
4617;BME280;2321;42.704;23.384;2023-03-13T12:25:11;95743.88;;;11.77;41.42
4617;BME280;2321;42.704;23.384;2023-03-13T12:27:44;95744.66;;;11.77;42.29
4617;BME280;2321;42.704;23.384;2023-03-13T12:30:19;95732.91;;;11.94;43.05
4617;BME280;2321;42.704;23.384;2023-03-13T12:32:55;95745.03;;;12.18;42.49
4617;BME280;2321;42.704;23.384;2023-03-13T12:35:26;95730.13;;;12.31;40.80
4617;BME280;2321;42.704;23.384;2023-03-13T12:37:58;95731.03;;;12.38;41.22
4617;BME280;2321;42.704;23.384;2023-03-13T12:40:32;95722.34;;;12.36;41.58
4617;BME280;2321;42.704;23.384;2023-03-13T12:43:04;95720.34;;;12.38;41.33
4617;BME280;2321;42.704;23.384;2023-03-13T12:45:44;95717.28;;;12.41;40.46
4617;BME280;2321;42.704;23.384;2023-03-13T12:48:26;95721.34;;;12.37;40.31
4617;BME280;2321;42.704;23.384;2023-03-13T12:51:06;95734.22;;;12.27;39.79
4617;BME280;2321;42.704;23.384;2023-03-13T12:53:45;95726.09;;;12.42;41.91
4617;BME280;2321;42.704;23.384;2023-03-13T12:56:37;95729.53;;;12.64;41.17
4617;BME280;2321;42.704;23.384;2023-03-13T12:59:14;95724.25;;;12.78;41.08
4617;BME280;2321;42.704;23.384;2023-03-13T13:01:43;95722.91;;;12.96;41.02
4617;BME280;2321;42.704;23.384;2023-03-13T13:04:12;95728.50;;;13.08;39.66
4617;BME280;2321;42.704;23.384;2023-03-13T13:06:51;95730.00;;;13.24;40.53
4617;BME280;2321;42.704;23.384;2023-03-13T13:09:22;95721.16;;;13.37;39.87
4617;BME280;2321;42.704;23.384;2023-03-13T13:11:51;95727.56;;;13.36;38.66
4617;BME280;2321;42.704;23.384;2023-03-13T13:15:04;95728.94;;;13.25;39.76
4617;BME280;2321;42.704;23.384;2023-03-13T13:17:50;95723.56;;;13.12;39.20
4617;BME280;2321;42.704;23.384;2023-03-13T13:20:32;95721.06;;;13.03;39.65
4617;BME280;2321;42.704;23.384;2023-03-13T13:23:29;95720.25;;;13.03;39.60
4617;BME280;2321;42.704;23.384;2023-03-13T13:32:52;95714.19;;;12.80;39.14
4617;BME280;2321;42.704;23.384;2023-03-13T13:38:30;95710.00;;;12.64;39.83
4617;BME280;2321;42.704;23.384;2023-03-13T13:41:22;95698.47;;;12.57;40.11
4617;BME280;2321;42.704;23.384;2023-03-13T13:44:23;95693.53;;;12.60;40.86